sensor_id;sensor_type;location;lat;lon;timestamp;pressure;altitude;pressure_sealevel;temperature;humidity
16451;BME280;12243;42.708;23.310;2024-01-16T00:01:05;93538.78;;;3.95;91.35
16451;BME280;12243;42.708;23.310;2024-01-16T00:03:33;93542.00;;;4.08;91.17
16451;BME280;12243;42.708;23.310;2024-01-16T00:06:00;93539.72;;;4.15;90.15
16451;BME280;12243;42.708;23.310;2024-01-16T00:08:27;93541.03;;;4.09;90.12
16451;BME280;12243;42.708;23.310;2024-01-16T00:10:54;93551.34;;;4.09;89.80
16451;BME280;12243;42.708;23.310;2024-01-16T00:13:21;93545.25;;;4.10;90.59
16451;BME280;12243;42.708;23.310;2024-01-16T00:15:48;93553.22;;;4.07;90.71
16451;BME280;12243;42.708;23.310;2024-01-16T00:18:15;93559.94;;;3.98;91.31
16451;BME280;12243;42.708;23.310;2024-01-16T00:20:43;93558.19;;;3.99;91.26
16451;BME280;12243;42.708;23.310;2024-01-16T00:23:10;93548.56;;;4.01;92.04
16451;BME280;12243;42.708;23.310;2024-01-16T00:25:37;93561.44;;;4.01;92.34
16451;BME280;12243;42.708;23.310;2024-01-16T00:28:04;93560.69;;;4.10;91.76
16451;BME280;12243;42.708;23.310;2024-01-16T00:30:31;93565.44;;;4.05;92.75
16451;BME280;12243;42.708;23.310;2024-01-16T00:32:59;93564.16;;;4.20;91.51
16451;BME280;12243;42.708;23.310;2024-01-16T00:35:26;93562.03;;;4.25;91.63
16451;BME280;12243;42.708;23.310;2024-01-16T00:37:54;93568.59;;;4.39;91.03
16451;BME280;12243;42.708;23.310;2024-01-16T00:40:21;93568.50;;;4.41;90.78
16451;BME280;12243;42.708;23.310;2024-01-16T00:42:47;93572.06;;;4.28;91.62
16451;BME280;12243;42.708;23.310;2024-01-16T00:45:14;93575.75;;;4.26;91.98
16451;BME280;12243;42.708;23.310;2024-01-16T00:47:42;93565.47;;;4.36;91.64
16451;BME280;12243;42.708;23.310;2024-01-16T00:50:09;93567.47;;;4.53;91.23
16451;BME280;12243;42.708;23.310;2024-01-16T00:52:36;93558.25;;;4.50;90.89
16451;BME280;12243;42.708;23.310;2024-01-16T00:55:05;93566.09;;;4.49;91.38
16451;BME280;12243;42.708;23.310;2024-01-16T00:57:32;93571.63;;;4.44;92.41
16451;BME280;12243;42.708;23.310;2024-01-16T00:59:59;93572.13;;;4.38;92.81
16451;BME280;12243;42.708;23.310;2024-01-16T01:02:25;93591.63;;;4.31;93.40
16451;BME280;12243;42.708;23.310;2024-01-16T01:04:52;93592.13;;;4.25;93.78
16451;BME280;12243;42.708;23.310;2024-01-16T01:07:19;93601.38;;;4.27;94.17
16451;BME280;12243;42.708;23.310;2024-01-16T01:09:46;93591.88;;;4.49;93.90
16451;BME280;12243;42.708;23.310;2024-01-16T01:12:14;93601.25;;;4.50;94.26
16451;BME280;12243;42.708;23.310;2024-01-16T01:14:41;93603.44;;;4.34;95.14
16451;BME280;12243;42.708;23.310;2024-01-16T01:17:08;93592.41;;;4.43;95.19
16451;BME280;12243;42.708;23.310;2024-01-16T01:19:35;93581.06;;;4.34;94.93
16451;BME280;12243;42.708;23.310;2024-01-16T01:22:02;93580.00;;;4.37;95.16
16451;BME280;12243;42.708;23.310;2024-01-16T01:24:28;93572.94;;;4.39;95.32
16451;BME280;12243;42.708;23.310;2024-01-16T01:26:55;93569.19;;;4.43;94.67
16451;BME280;12243;42.708;23.310;2024-01-16T01:29:24;93570.56;;;4.47;94.83
16451;BME280;12243;42.708;23.310;2024-01-16T01:31:51;93571.06;;;4.41;95.45
16451;BME280;12243;42.708;23.310;2024-01-16T01:34:18;93582.59;;;4.37;96.37
16451;BME280;12243;42.708;23.310;2024-01-16T01:36:45;93581.88;;;4.35;96.84
16451;BME280;12243;42.708;23.310;2024-01-16T01:39:12;93579.31;;;4.35;96.52
16451;BME280;12243;42.708;23.310;2024-01-16T01:41:39;93584.53;;;4.44;97.03
16451;BME280;12243;42.708;23.310;2024-01-16T01:44:06;93575.03;;;4.45;97.31
16451;BME280;12243;42.708;23.310;2024-01-16T01:46:35;93582.19;;;4.41;95.19
16451;BME280;12243;42.708;23.310;2024-01-16T01:49:02;93592.50;;;4.41;95.16
16451;BME280;12243;42.708;23.310;2024-01-16T01:51:29;93569.69;;;4.37;96.23
16451;BME280;12243;42.708;23.310;2024-01-16T01:53:57;93569.69;;;4.37;95.63
16451;BME280;12243;42.708;23.310;2024-01-16T01:56:25;93594.28;;;4.20;96.62
16451;BME280;12243;42.708;23.310;2024-01-16T01:58:55;93592.50;;;4.20;98.08
16451;BME280;12243;42.708;23.310;2024-01-16T02:01:24;93590.19;;;4.17;98.20
16451;BME280;12243;42.708;23.310;2024-01-16T02:03:55;93579.38;;;4.23;97.86
16451;BME280;12243;42.708;23.310;2024-01-16T02:06:22;93582.94;;;4.32;96.52
16451;BME280;12243;42.708;23.310;2024-01-16T02:08:49;93588.22;;;4.30;97.17
16451;BME280;12243;42.708;23.310;2024-01-16T02:11:16;93573.19;;;4.36;96.51
16451;BME280;12243;42.708;23.310;2024-01-16T02:13:43;93580.00;;;4.37;96.97
16451;BME280;12243;42.708;23.310;2024-01-16T02:16:20;93583.47;;;4.47;96.30
16451;BME280;12243;42.708;23.310;2024-01-16T02:18:50;93601.69;;;4.55;94.67
16451;BME280;12243;42.708;23.310;2024-01-16T02:21:21;93609.66;;;4.52;95.49
16451;BME280;12243;42.708;23.310;2024-01-16T02:23:50;93598.59;;;4.61;94.71
16451;BME280;12243;42.708;23.310;2024-01-16T02:26:17;93609.59;;;4.42;95.57
16451;BME280;12243;42.708;23.310;2024-01-16T02:28:44;93620.47;;;4.46;95.66
16451;BME280;12243;42.708;23.310;2024-01-16T02:31:11;93619.47;;;4.58;94.71
16451;BME280;12243;42.708;23.310;2024-01-16T02:33:41;93627.13;;;4.69;93.47
16451;BME280;12243;42.708;23.310;2024-01-16T02:36:08;93626.47;;;4.46;94.40
16451;BME280;12243;42.708;23.310;2024-01-16T02:38:35;93634.25;;;4.56;94.32
16451;BME280;12243;42.708;23.310;2024-01-16T02:41:04;93633.09;;;4.70;93.34
16451;BME280;12243;42.708;23.310;2024-01-16T02:43:31;93632.78;;;4.63;93.76
16451;BME280;12243;42.708;23.310;2024-01-16T02:45:58;93648.31;;;4.73;94.30
16451;BME280;12243;42.708;23.310;2024-01-16T02:48:25;93652.09;;;4.69;94.33
16451;BME280;12243;42.708;23.310;2024-01-16T02:50:52;93669.66;;;4.75;95.51
16451;BME280;12243;42.708;23.310;2024-01-16T02:53:19;93678.72;;;4.69;96.41
16451;BME280;12243;42.708;23.310;2024-01-16T02:55:46;93684.94;;;4.67;98.41
16451;BME280;12243;42.708;23.310;2024-01-16T02:58:14;93688.78;;;4.72;99.98
16451;BME280;12243;42.708;23.310;2024-01-16T03:00:41;93691.53;;;4.81;100.00
16451;BME280;12243;42.708;23.310;2024-01-16T03:03:08;93695.38;;;4.86;100.00
16451;BME280;12243;42.708;23.310;2024-01-16T03:05:34;93693.38;;;4.90;100.00
16451;BME280;12243;42.708;23.310;2024-01-16T03:08:01;93702.72;;;4.91;100.00
16451;BME280;12243;42.708;23.310;2024-01-16T03:10:28;93707.06;;;4.90;100.00
16451;BME280;12243;42.708;23.310;2024-01-16T03:12:55;93715.50;;;4.92;100.00
16451;BME280;12243;42.708;23.310;2024-01-16T03:15:24;93726.34;;;4.86;100.00
16451;BME280;12243;42.708;23.310;2024-01-16T03:17:51;93737.78;;;4.72;100.00
16451;BME280;12243;42.708;23.310;2024-01-16T03:20:18;93739.91;;;4.67;100.00
16451;BME280;12243;42.708;23.310;2024-01-16T03:22:45;93749.06;;;4.60;100.00
16451;BME280;12243;42.708;23.310;2024-01-16T03:25:12;93762.72;;;4.51;100.00
16451;BME280;12243;42.708;23.310;2024-01-16T03:27:39;93764.00;;;4.45;100.00
16451;BME280;12243;42.708;23.310;2024-01-16T03:30:08;93780.78;;;4.40;100.00
16451;BME280;12243;42.708;23.310;2024-01-16T03:32:36;93782.09;;;4.34;100.00
16451;BME280;12243;42.708;23.310;2024-01-16T03:35:04;93784.91;;;4.31;100.00
16451;BME280;12243;42.708;23.310;2024-01-16T03:37:31;93802.59;;;4.24;100.00
16451;BME280;12243;42.708;23.310;2024-01-16T03:39:59;93803.56;;;4.12;100.00
16451;BME280;12243;42.708;23.310;2024-01-16T03:42:26;93813.66;;;4.15;100.00
16451;BME280;12243;42.708;23.310;2024-01-16T03:44:53;93815.75;;;4.10;100.00
16451;BME280;12243;42.708;23.310;2024-01-16T03:47:20;93819.50;;;4.06;100.00
16451;BME280;12243;42.708;23.310;2024-01-16T03:49:48;93825.84;;;4.02;100.00
16451;BME280;12243;42.708;23.310;2024-01-16T03:52:15;93835.41;;;4.00;100.00
16451;BME280;12243;42.708;23.310;2024-01-16T03:54:42;93830.06;;;3.92;100.00
16451;BME280;12243;42.708;23.310;2024-01-16T03:57:09;93843.97;;;3.89;100.00
16451;BME280;12243;42.708;23.310;2024-01-16T03:59:38;93855.22;;;3.88;100.00
16451;BME280;12243;42.708;23.310;2024-01-16T04:02:05;93856.72;;;3.68;100.00
16451;BME280;12243;42.708;23.310;2024-01-16T04:04:32;93867.47;;;3.62;100.00
16451;BME280;12243;42.708;23.310;2024-01-16T04:07:00;93878.72;;;3.61;100.00
16451;BME280;12243;42.708;23.310;2024-01-16T04:09:27;93874.81;;;3.44;100.00
16451;BME280;12243;42.708;23.310;2024-01-16T04:11:54;93890.84;;;3.48;100.00
16451;BME280;12243;42.708;23.310;2024-01-16T04:14:21;93896.22;;;3.45;100.00
16451;BME280;12243;42.708;23.310;2024-01-16T04:16:48;93891.75;;;3.36;100.00
16451;BME280;12243;42.708;23.310;2024-01-16T04:19:15;93895.00;;;3.26;100.00
16451;BME280;12243;42.708;23.310;2024-01-16T04:21:42;93902.63;;;3.28;100.00
16451;BME280;12243;42.708;23.310;2024-01-16T04:24:10;93908.47;;;3.30;100.00
16451;BME280;12243;42.708;23.310;2024-01-16T04:26:37;93899.47;;;3.24;100.00
16451;BME280;12243;42.708;23.310;2024-01-16T04:29:04;93898.00;;;3.20;100.00
16451;BME280;12243;42.708;23.310;2024-01-16T04:31:31;93915.81;;;3.23;100.00
16451;BME280;12243;42.708;23.310;2024-01-16T04:33:58;93909.38;;;3.18;100.00
16451;BME280;12243;42.708;23.310;2024-01-16T04:36:25;93917.63;;;3.10;100.00
16451;BME280;12243;42.708;23.310;2024-01-16T04:38:51;93926.47;;;3.06;100.00
16451;BME280;12243;42.708;23.310;2024-01-16T04:41:20;93927.53;;;3.03;100.00
16451;BME280;12243;42.708;23.310;2024-01-16T04:43:46;93938.25;;;2.97;100.00
16451;BME280;12243;42.708;23.310;2024-01-16T04:46:14;93959.22;;;3.04;100.00
16451;BME280;12243;42.708;23.310;2024-01-16T04:48:41;93953.78;;;2.96;100.00
16451;BME280;12243;42.708;23.310;2024-01-16T04:51:08;93979.03;;;2.91;100.00
16451;BME280;12243;42.708;23.310;2024-01-16T04:53:35;93993.03;;;2.86;100.00
16451;BME280;12243;42.708;23.310;2024-01-16T04:56:02;93987.78;;;2.75;100.00
16451;BME280;12243;42.708;23.310;2024-01-16T04:58:30;93991.22;;;2.76;100.00
16451;BME280;12243;42.708;23.310;2024-01-16T05:00:57;93995.75;;;2.72;100.00
16451;BME280;12243;42.708;23.310;2024-01-16T05:03:23;94004.81;;;2.65;100.00
16451;BME280;12243;42.708;23.310;2024-01-16T05:05:50;94012.00;;;2.60;100.00
16451;BME280;12243;42.708;23.310;2024-01-16T05:08:17;94019.91;;;2.57;100.00
16451;BME280;12243;42.708;23.310;2024-01-16T05:10:44;94029.06;;;2.48;100.00
16451;BME280;12243;42.708;23.310;2024-01-16T05:13:11;94035.66;;;2.39;100.00
16451;BME280;12243;42.708;23.310;2024-01-16T05:15:40;94041.41;;;2.43;100.00
16451;BME280;12243;42.708;23.310;2024-01-16T05:18:07;94039.66;;;2.44;100.00
16451;BME280;12243;42.708;23.310;2024-01-16T05:20:34;94053.03;;;2.49;100.00
16451;BME280;12243;42.708;23.310;2024-01-16T05:23:01;94075.94;;;2.52;100.00
16451;BME280;12243;42.708;23.310;2024-01-16T05:25:30;94078.41;;;2.53;100.00
16451;BME280;12243;42.708;23.310;2024-01-16T05:27:57;94091.34;;;2.65;100.00
16451;BME280;12243;42.708;23.310;2024-01-16T05:30:23;94097.72;;;2.72;100.00
16451;BME280;12243;42.708;23.310;2024-01-16T05:32:52;94105.75;;;2.67;100.00
16451;BME280;12243;42.708;23.310;2024-01-16T05:35:19;94097.41;;;2.63;100.00
16451;BME280;12243;42.708;23.310;2024-01-16T05:37:45;94104.09;;;2.66;100.00
16451;BME280;12243;42.708;23.310;2024-01-16T05:40:13;94106.59;;;2.55;100.00
16451;BME280;12243;42.708;23.310;2024-01-16T05:42:40;94114.16;;;2.44;100.00
16451;BME280;12243;42.708;23.310;2024-01-16T05:45:08;94121.66;;;2.47;100.00
16451;BME280;12243;42.708;23.310;2024-01-16T05:47:35;94129.78;;;2.41;100.00
16451;BME280;12243;42.708;23.310;2024-01-16T05:50:04;94135.16;;;2.37;100.00
16451;BME280;12243;42.708;23.310;2024-01-16T05:52:31;94152.41;;;2.35;100.00
16451;BME280;12243;42.708;23.310;2024-01-16T05:54:58;94157.94;;;2.29;100.00
16451;BME280;12243;42.708;23.310;2024-01-16T05:57:25;94170.78;;;2.29;100.00
16451;BME280;12243;42.708;23.310;2024-01-16T05:59:52;94172.22;;;2.33;100.00
16451;BME280;12243;42.708;23.310;2024-01-16T06:02:19;94178.28;;;2.32;100.00
16451;BME280;12243;42.708;23.310;2024-01-16T06:04:45;94185.06;;;2.33;100.00
16451;BME280;12243;42.708;23.310;2024-01-16T06:07:14;94193.69;;;2.32;100.00
16451;BME280;12243;42.708;23.310;2024-01-16T06:09:41;94203.78;;;2.35;100.00
16451;BME280;12243;42.708;23.310;2024-01-16T06:12:08;94205.59;;;2.33;100.00
16451;BME280;12243;42.708;23.310;2024-01-16T06:14:35;94215.31;;;2.43;100.00
16451;BME280;12243;42.708;23.310;2024-01-16T06:17:02;94218.81;;;2.42;100.00
16451;BME280;12243;42.708;23.310;2024-01-16T06:19:31;94228.47;;;2.38;100.00
16451;BME280;12243;42.708;23.310;2024-01-16T06:21:58;94240.81;;;2.46;100.00
16451;BME280;12243;42.708;23.310;2024-01-16T06:24:26;94251.28;;;2.43;100.00
16451;BME280;12243;42.708;23.310;2024-01-16T06:26:53;94254.78;;;2.42;100.00
16451;BME280;12243;42.708;23.310;2024-01-16T06:29:20;94264.69;;;2.48;100.00
16451;BME280;12243;42.708;23.310;2024-01-16T06:31:47;94273.41;;;2.45;99.30
16451;BME280;12243;42.708;23.310;2024-01-16T06:34:13;94282.75;;;2.46;99.30
16451;BME280;12243;42.708;23.310;2024-01-16T06:36:40;94280.47;;;2.42;99.60
16451;BME280;12243;42.708;23.310;2024-01-16T06:39:07;94286.50;;;2.41;98.84
16451;BME280;12243;42.708;23.310;2024-01-16T06:41:35;94281.59;;;2.37;99.51
16451;BME280;12243;42.708;23.310;2024-01-16T06:44:02;94276.53;;;2.36;99.28
16451;BME280;12243;42.708;23.310;2024-01-16T06:46:29;94288.13;;;2.29;99.42
16451;BME280;12243;42.708;23.310;2024-01-16T06:48:56;94302.22;;;2.36;99.92
16451;BME280;12243;42.708;23.310;2024-01-16T06:51:23;94289.31;;;2.37;99.02
16451;BME280;12243;42.708;23.310;2024-01-16T06:53:49;94307.19;;;2.39;99.16
16451;BME280;12243;42.708;23.310;2024-01-16T06:56:16;94317.00;;;2.32;99.14
16451;BME280;12243;42.708;23.310;2024-01-16T06:58:44;94327.47;;;2.29;99.14
16451;BME280;12243;42.708;23.310;2024-01-16T07:01:11;94336.84;;;2.30;98.75
16451;BME280;12243;42.708;23.310;2024-01-16T07:03:39;94334.38;;;2.29;98.75
16451;BME280;12243;42.708;23.310;2024-01-16T07:06:06;94337.56;;;2.32;99.46
16451;BME280;12243;42.708;23.310;2024-01-16T07:08:33;94350.03;;;2.38;98.54
16451;BME280;12243;42.708;23.310;2024-01-16T07:11:00;94353.72;;;2.34;98.29
16451;BME280;12243;42.708;23.310;2024-01-16T07:13:27;94372.78;;;2.45;98.57
16451;BME280;12243;42.708;23.310;2024-01-16T07:15:55;94377.94;;;2.45;98.50
16451;BME280;12243;42.708;23.310;2024-01-16T07:18:22;94382.88;;;2.48;98.03
16451;BME280;12243;42.708;23.310;2024-01-16T07:20:49;94387.38;;;2.44;98.24
16451;BME280;12243;42.708;23.310;2024-01-16T07:23:15;94396.44;;;2.50;97.73
16451;BME280;12243;42.708;23.310;2024-01-16T07:25:42;94407.28;;;2.41;98.27
16451;BME280;12243;42.708;23.310;2024-01-16T07:28:09;94415.47;;;2.33;98.81
16451;BME280;12243;42.708;23.310;2024-01-16T07:30:36;94420.59;;;2.33;98.79
16451;BME280;12243;42.708;23.310;2024-01-16T07:33:04;94425.03;;;2.31;98.85
16451;BME280;12243;42.708;23.310;2024-01-16T07:35:31;94425.75;;;2.33;99.54
16451;BME280;12243;42.708;23.310;2024-01-16T07:37:58;94438.13;;;2.41;98.22
16451;BME280;12243;42.708;23.310;2024-01-16T07:40:25;94446.38;;;2.46;97.96
16451;BME280;12243;42.708;23.310;2024-01-16T07:42:52;94449.25;;;2.41;98.29
16451;BME280;12243;42.708;23.310;2024-01-16T07:45:19;94438.50;;;2.34;98.01
16451;BME280;12243;42.708;23.310;2024-01-16T07:47:46;94434.66;;;2.42;98.80
16451;BME280;12243;42.708;23.310;2024-01-16T07:50:14;94446.56;;;2.43;98.11
16451;BME280;12243;42.708;23.310;2024-01-16T07:52:41;94455.38;;;2.38;97.86
16451;BME280;12243;42.708;23.310;2024-01-16T07:55:08;94468.59;;;2.47;97.99
16451;BME280;12243;42.708;23.310;2024-01-16T07:57:35;94474.53;;;2.47;98.36
16451;BME280;12243;42.708;23.310;2024-01-16T08:00:02;94475.59;;;2.45;97.75
16451;BME280;12243;42.708;23.310;2024-01-16T08:02:34;94476.75;;;2.39;97.87
16451;BME280;12243;42.708;23.310;2024-01-16T08:05:03;94482.84;;;2.38;97.67
16451;BME280;12243;42.708;23.310;2024-01-16T08:07:31;94495.03;;;2.34;97.25
16451;BME280;12243;42.708;23.310;2024-01-16T08:10:00;94496.03;;;2.32;96.53
16451;BME280;12243;42.708;23.310;2024-01-16T08:12:27;94504.50;;;2.34;95.47
16451;BME280;12243;42.708;23.310;2024-01-16T08:14:54;94513.56;;;2.39;94.77
16451;BME280;12243;42.708;23.310;2024-01-16T08:17:20;94504.28;;;2.37;94.39
16451;BME280;12243;42.708;23.310;2024-01-16T08:19:47;94521.25;;;2.25;93.76
16451;BME280;12243;42.708;23.310;2024-01-16T08:22:14;94526.50;;;2.24;93.94
16451;BME280;12243;42.708;23.310;2024-01-16T08:24:42;94540.63;;;2.31;94.73
16451;BME280;12243;42.708;23.310;2024-01-16T08:27:09;94550.47;;;2.38;94.25
16451;BME280;12243;42.708;23.310;2024-01-16T08:29:36;94536.16;;;2.34;93.53
16451;BME280;12243;42.708;23.310;2024-01-16T08:32:03;94544.31;;;2.41;94.08
16451;BME280;12243;42.708;23.310;2024-01-16T08:34:30;94545.22;;;2.40;93.64
16451;BME280;12243;42.708;23.310;2024-01-16T08:36:57;94551.38;;;2.37;93.63
16451;BME280;12243;42.708;23.310;2024-01-16T08:39:24;94549.34;;;2.43;93.55
16451;BME280;12243;42.708;23.310;2024-01-16T08:41:55;94560.38;;;2.45;93.78
16451;BME280;12243;42.708;23.310;2024-01-16T08:44:23;94573.22;;;2.45;93.54
16451;BME280;12243;42.708;23.310;2024-01-16T08:46:50;94570.72;;;2.43;94.44
16451;BME280;12243;42.708;23.310;2024-01-16T08:49:16;94570.56;;;2.46;93.30
16451;BME280;12243;42.708;23.310;2024-01-16T08:51:43;94589.53;;;2.29;93.67
16451;BME280;12243;42.708;23.310;2024-01-16T08:54:10;94588.22;;;2.22;94.47
16451;BME280;12243;42.708;23.310;2024-01-16T08:56:37;94589.69;;;2.26;94.88
16451;BME280;12243;42.708;23.310;2024-01-16T08:59:05;94594.44;;;2.48;94.41
16451;BME280;12243;42.708;23.310;2024-01-16T09:01:32;94601.13;;;2.51;93.50
16451;BME280;12243;42.708;23.310;2024-01-16T09:03:59;94594.91;;;2.55;93.33
16451;BME280;12243;42.708;23.310;2024-01-16T09:06:26;94582.59;;;2.60;92.98
16451;BME280;12243;42.708;23.310;2024-01-16T09:08:52;94586.16;;;2.72;92.95
16451;BME280;12243;42.708;23.310;2024-01-16T09:11:19;94588.66;;;2.88;92.19
16451;BME280;12243;42.708;23.310;2024-01-16T09:13:46;94597.38;;;2.85;90.63
16451;BME280;12243;42.708;23.310;2024-01-16T09:16:14;94600.97;;;2.82;91.50
16451;BME280;12243;42.708;23.310;2024-01-16T09:18:41;94599.78;;;2.88;91.26
16451;BME280;12243;42.708;23.310;2024-01-16T09:21:08;94603.91;;;2.91;90.73
16451;BME280;12243;42.708;23.310;2024-01-16T09:23:35;94604.09;;;3.02;91.04
16451;BME280;12243;42.708;23.310;2024-01-16T09:26:02;94604.25;;;3.13;90.56
16451;BME280;12243;42.708;23.310;2024-01-16T09:28:28;94615.81;;;3.20;88.90
16451;BME280;12243;42.708;23.310;2024-01-16T09:30:55;94619.88;;;3.24;88.77
16451;BME280;12243;42.708;23.310;2024-01-16T09:33:24;94616.56;;;3.22;88.77
16451;BME280;12243;42.708;23.310;2024-01-16T09:35:51;94614.00;;;3.22;88.48
16451;BME280;12243;42.708;23.310;2024-01-16T09:38:18;94608.50;;;3.14;88.80
16451;BME280;12243;42.708;23.310;2024-01-16T09:40:46;94604.22;;;3.27;89.06
16451;BME280;12243;42.708;23.310;2024-01-16T09:43:13;94614.69;;;3.53;88.88
16451;BME280;12243;42.708;23.310;2024-01-16T09:45:40;94622.00;;;3.59;87.28
16451;BME280;12243;42.708;23.310;2024-01-16T09:48:08;94619.19;;;3.49;86.50
16451;BME280;12243;42.708;23.310;2024-01-16T09:50:37;94623.53;;;3.49;86.71
16451;BME280;12243;42.708;23.310;2024-01-16T09:53:03;94623.53;;;3.49;86.44
16451;BME280;12243;42.708;23.310;2024-01-16T09:55:30;94627.88;;;3.61;86.62
16451;BME280;12243;42.708;23.310;2024-01-16T09:57:58;94615.75;;;3.63;85.29
16451;BME280;12243;42.708;23.310;2024-01-16T10:00:26;94617.97;;;3.55;84.89
16451;BME280;12243;42.708;23.310;2024-01-16T10:02:54;94613.50;;;3.71;85.34
16451;BME280;12243;42.708;23.310;2024-01-16T10:05:24;94617.41;;;3.91;83.84
16451;BME280;12243;42.708;23.310;2024-01-16T10:07:52;94616.09;;;3.98;82.55
16451;BME280;12243;42.708;23.310;2024-01-16T10:10:19;94616.22;;;3.82;82.01
16451;BME280;12243;42.708;23.310;2024-01-16T10:12:49;94609.44;;;3.81;82.02
16451;BME280;12243;42.708;23.310;2024-01-16T10:15:18;94606.59;;;3.99;82.80
16451;BME280;12243;42.708;23.310;2024-01-16T10:17:46;94603.84;;;4.15;81.83
16451;BME280;12243;42.708;23.310;2024-01-16T10:20:13;94614.13;;;4.02;81.59
16451;BME280;12243;42.708;23.310;2024-01-16T10:22:53;94627.25;;;4.12;81.01
16451;BME280;12243;42.708;23.310;2024-01-16T10:25:20;94633.19;;;3.99;81.35
16451;BME280;12243;42.708;23.310;2024-01-16T10:27:48;94630.47;;;3.88;81.70
16451;BME280;12243;42.708;23.310;2024-01-16T10:30:21;94632.38;;;3.99;80.98
16451;BME280;12243;42.708;23.310;2024-01-16T10:32:48;94635.13;;;3.96;80.25
16451;BME280;12243;42.708;23.310;2024-01-16T10:35:15;94628.66;;;4.03;81.20
16451;BME280;12243;42.708;23.310;2024-01-16T10:37:47;94622.50;;;3.78;80.83
16451;BME280;12243;42.708;23.310;2024-01-16T10:40:19;94623.81;;;3.71;81.36
16451;BME280;12243;42.708;23.310;2024-01-16T10:42:57;94633.59;;;3.66;81.09
16451;BME280;12243;42.708;23.310;2024-01-16T10:45:24;94626.06;;;3.63;81.98
16451;BME280;12243;42.708;23.310;2024-01-16T10:48:00;94631.44;;;3.73;82.71
16451;BME280;12243;42.708;23.310;2024-01-16T10:50:28;94645.63;;;3.93;82.38
16451;BME280;12243;42.708;23.310;2024-01-16T10:52:55;94636.97;;;3.94;82.04
16451;BME280;12243;42.708;23.310;2024-01-16T10:55:24;94627.16;;;4.13;82.15
16451;BME280;12243;42.708;23.310;2024-01-16T10:57:55;94622.56;;;4.31;80.57
16451;BME280;12243;42.708;23.310;2024-01-16T11:00:23;94618.97;;;4.34;79.32
16451;BME280;12243;42.708;23.310;2024-01-16T11:02:56;94641.09;;;4.23;78.60
16451;BME280;12243;42.708;23.310;2024-01-16T11:05:25;94636.19;;;4.06;79.48
16451;BME280;12243;42.708;23.310;2024-01-16T11:07:55;94641.75;;;4.40;79.66
16451;BME280;12243;42.708;23.310;2024-01-16T11:10:25;94637.72;;;4.36;77.50
16451;BME280;12243;42.708;23.310;2024-01-16T11:12:54;94647.97;;;4.50;76.85
16451;BME280;12243;42.708;23.310;2024-01-16T11:15:23;94652.31;;;4.62;77.49
16451;BME280;12243;42.708;23.310;2024-01-16T11:17:50;94655.63;;;4.64;76.64
16451;BME280;12243;42.708;23.310;2024-01-16T11:20:19;94644.97;;;4.56;76.75
16451;BME280;12243;42.708;23.310;2024-01-16T11:22:47;94647.56;;;4.69;76.59
16451;BME280;12243;42.708;23.310;2024-01-16T11:25:16;94654.41;;;4.83;76.67
16451;BME280;12243;42.708;23.310;2024-01-16T11:27:46;94644.16;;;4.68;76.93
16451;BME280;12243;42.708;23.310;2024-01-16T11:30:29;94651.50;;;4.74;76.12
16451;BME280;12243;42.708;23.310;2024-01-16T11:32:57;94649.66;;;4.64;75.23
16451;BME280;12243;42.708;23.310;2024-01-16T11:35:32;94659.09;;;4.63;75.91
16451;BME280;12243;42.708;23.310;2024-01-16T11:38:04;94655.91;;;4.60;76.64
16451;BME280;12243;42.708;23.310;2024-01-16T11:40:35;94654.38;;;4.57;76.79
16451;BME280;12243;42.708;23.310;2024-01-16T11:43:37;94655.81;;;4.61;78.02
16451;BME280;12243;42.708;23.310;2024-01-16T11:46:06;94657.66;;;4.59;77.12
16451;BME280;12243;42.708;23.310;2024-01-16T11:48:33;94659.31;;;4.60;77.35
16451;BME280;12243;42.708;23.310;2024-01-16T11:51:00;94666.72;;;4.52;78.08
16451;BME280;12243;42.708;23.310;2024-01-16T11:53:47;94667.75;;;4.37;76.40
16451;BME280;12243;42.708;23.310;2024-01-16T11:56:38;94669.53;;;4.22;78.44
16451;BME280;12243;42.708;23.310;2024-01-16T11:59:36;94664.88;;;4.14;78.14
16451;BME280;12243;42.708;23.310;2024-01-16T12:02:14;94655.13;;;4.19;78.69
16451;BME280;12243;42.708;23.310;2024-01-16T12:04:52;94676.78;;;4.29;79.15
16451;BME280;12243;42.708;23.310;2024-01-16T12:07:20;94674.28;;;4.15;80.99
16451;BME280;12243;42.708;23.310;2024-01-16T12:09:47;94684.59;;;4.15;80.78
16451;BME280;12243;42.708;23.310;2024-01-16T12:12:15;94689.38;;;4.07;80.46
16451;BME280;12243;42.708;23.310;2024-01-16T12:14:52;94690.31;;;4.06;80.89
16451;BME280;12243;42.708;23.310;2024-01-16T12:17:20;94697.31;;;4.04;80.30
16451;BME280;12243;42.708;23.310;2024-01-16T12:19:46;94684.38;;;3.91;81.32
16451;BME280;12243;42.708;23.310;2024-01-16T12:22:15;94681.38;;;3.85;81.18
16451;BME280;12243;42.708;23.310;2024-01-16T12:24:43;94672.31;;;3.92;81.27
16451;BME280;12243;42.708;23.310;2024-01-16T12:27:11;94687.84;;;4.04;81.57
16451;BME280;12243;42.708;23.310;2024-01-16T12:29:38;94692.16;;;4.04;81.07
16451;BME280;12243;42.708;23.310;2024-01-16T12:32:09;94682.03;;;4.01;81.32
16451;BME280;12243;42.708;23.310;2024-01-16T12:34:44;94693.22;;;4.14;81.50
16451;BME280;12243;42.708;23.310;2024-01-16T12:37:12;94688.47;;;4.08;79.21
16451;BME280;12243;42.708;23.310;2024-01-16T12:39:39;94694.72;;;4.04;79.36
16451;BME280;12243;42.708;23.310;2024-01-16T12:42:07;94711.31;;;4.00;79.01
16451;BME280;12243;42.708;23.310;2024-01-16T12:44:35;94716.06;;;4.06;79.45
16451;BME280;12243;42.708;23.310;2024-01-16T12:47:03;94710.53;;;4.12;79.74
16451;BME280;12243;42.708;23.310;2024-01-16T12:49:31;94713.66;;;4.17;78.69
16451;BME280;12243;42.708;23.310;2024-01-16T12:52:18;94694.56;;;3.93;79.29
16451;BME280;12243;42.708;23.310;2024-01-16T12:54:46;94696.97;;;3.96;79.25
16451;BME280;12243;42.708;23.310;2024-01-16T12:57:17;94689.06;;;3.99;80.24
16451;BME280;12243;42.708;23.310;2024-01-16T12:59:46;94687.78;;;4.19;79.91
16451;BME280;12243;42.708;23.310;2024-01-16T13:02:19;94706.78;;;4.30;78.99